Time;durP1;ratioP1;P1;durP2;ratioP2;P2;SDS_P1;SDS_P2;PMS_P1;PMS_P2;Temp;Humidity;BMP_temperature;BMP_pressure;BME280_temperature;BME280_humidity;BME280_pressure;Samples;Min_cycle;Max_cycle;Signal;HPM_P1;HPM_P2
2023/12/27 00:00:47;;;;;;;;;;;3.60;99.90;;;;;;8473325;27;20009;-77
2023/12/27 00:04:49;;;;;;;;;;;3.60;99.90;;;;;;8476699;27;19950;-77
2023/12/27 00:08:50;;;;;;;;;;;3.60;99.90;;;;;;8477841;27;19975;-78
2023/12/27 00:12:52;;;;;;;;;;;3.50;99.90;;;;;;8461962;27;19928;-77
2023/12/27 00:16:54;;;;;;;;;;;3.50;99.90;;;;;;8459889;27;19923;-77
2023/12/27 00:20:55;;;;;;;;;;;3.40;99.90;;;;;;8478679;27;19935;-77
2023/12/27 00:24:57;;;;;;;;;;;3.40;99.90;;;;;;8457586;27;20293;-77
2023/12/27 00:28:59;;;;;;;;;;;3.40;99.90;;;;;;8473663;27;19935;-77
2023/12/27 00:33:01;;;;;;;;;;;3.40;99.90;;;;;;8448853;27;20269;-77
2023/12/27 00:37:03;;;;;;;;;;;3.40;99.90;;;;;;8476163;27;19931;-77
2023/12/27 00:41:06;;;;;;;;;;;3.30;99.90;;;;;;8457210;27;19924;-77
2023/12/27 00:45:08;;;;;;;;;;;3.30;99.90;;;;;;8475692;27;19968;-77
2023/12/27 00:49:10;;;;;;;;;;;3.30;99.90;;;;;;8473566;27;19931;-77
2023/12/27 00:53:11;;;;;;;;;;;3.20;99.90;;;;;;8455618;27;19927;-78
2023/12/27 00:57:13;;;;;;;;;;;3.20;99.90;;;;;;8452883;27;19931;-77
2023/12/27 01:01:15;;;;;;;;;;;3.10;99.90;;;;;;8454265;27;20476;-77
2023/12/27 01:05:17;;;;;;;;;;;3.10;99.90;;;;;;8475784;27;19931;-77
2023/12/27 01:09:18;;;;;;;;;;;3.10;99.90;;;;;;8475272;27;19931;-77
2023/12/27 01:13:20;;;;;;;;;;;3.10;99.90;;;;;;8479190;27;19923;-77
2023/12/27 01:17:23;;;;;;;;;;;3.10;99.90;;;;;;8472768;27;19927;-78
2023/12/27 01:21:24;;;;;;;;;;;3.10;99.90;;;;;;8488271;27;19979;-77
2023/12/27 01:25:26;;;;;;;;;;;3.10;99.90;;;;;;8475317;27;19931;-78
2023/12/27 01:29:28;;;;;;;;;;;3.10;99.90;;;;;;8475931;27;19928;-77
2023/12/27 01:33:29;;;;;;;;;;;3.20;99.90;;;;;;8482585;27;20003;-77
2023/12/27 01:37:32;;;;;;;;;;;3.20;99.90;;;;;;8460698;27;19965;-77
2023/12/27 01:41:33;;;;;;;;;;;3.20;99.90;;;;;;8476104;27;20432;-77
2023/12/27 01:45:35;;;;;;;;;;;3.20;99.90;;;;;;8464892;27;20394;-77
2023/12/27 01:49:37;;;;;;;;;;;3.40;99.90;;;;;;8456238;27;20302;-77
2023/12/27 01:53:39;;;;;;;;;;;3.50;99.90;;;;;;8468910;27;19952;-77
2023/12/27 01:57:41;;;;;;;;;;;3.60;99.90;;;;;;8447792;27;19977;-77
2023/12/27 02:01:43;;;;;;;;;;;3.70;99.90;;;;;;8466392;27;19923;-77
2023/12/27 02:05:45;;;;;;;;;;;3.70;99.90;;;;;;8469115;27;19927;-77
2023/12/27 02:09:49;;;;;;;;;;;3.80;99.90;;;;;;8475140;27;19927;-77
2023/12/27 02:13:51;;;;;;;;;;;3.80;99.90;;;;;;8477585;27;19931;-77
2023/12/27 02:17:52;;;;;;;;;;;3.90;99.90;;;;;;8468412;27;19924;-77
2023/12/27 02:21:54;;;;;;;;;;;3.90;99.90;;;;;;8456345;27;19927;-77
2023/12/27 02:25:57;;;;;;;;;;;3.90;99.90;;;;;;8472397;27;19927;-77
2023/12/27 02:29:58;;;;;;;;;;;3.90;99.90;;;;;;8455650;27;19935;-78
2023/12/27 02:34:00;;;;;;;;;;;3.90;99.90;;;;;;8467004;27;19928;-77
2023/12/27 02:38:02;;;;;;;;;;;3.90;99.90;;;;;;8480522;27;20435;-77
2023/12/27 02:42:04;;;;;;;;;;;3.90;99.90;;;;;;8466651;27;20247;-77
2023/12/27 02:46:05;;;;;;;;;;;4.00;99.90;;;;;;8451596;28;20514;-77
2023/12/27 02:50:07;;;;;;;;;;;4.00;99.90;;;;;;8474417;28;19946;-77
2023/12/27 02:54:09;;;;;;;;;;;4.10;99.90;;;;;;8474554;28;19939;-77
2023/12/27 02:58:11;;;;;;;;;;;4.20;99.90;;;;;;8450039;27;20441;-77
2023/12/27 03:02:12;;;;;;;;;;;4.20;99.90;;;;;;8458916;28;19932;-77
2023/12/27 03:06:14;;;;;;;;;;;4.20;99.90;;;;;;8452112;27;19930;-77
2023/12/27 03:10:16;;;;;;;;;;;4.30;99.90;;;;;;8476916;28;19934;-77
2023/12/27 03:14:17;;;;;;;;;;;4.30;99.90;;;;;;8467358;28;20195;-77
2023/12/27 03:18:19;;;;;;;;;;;4.40;99.90;;;;;;8453946;28;19976;-77
2023/12/27 03:22:21;;;;;;;;;;;4.40;99.90;;;;;;8465228;28;19931;-77
2023/12/27 03:26:22;;;;;;;;;;;4.40;99.90;;;;;;8462576;27;19923;-77
2023/12/27 03:30:24;;;;;;;;;;;4.40;99.90;;;;;;8453777;28;19931;-77
2023/12/27 03:34:26;;;;;;;;;;;4.50;99.90;;;;;;8453725;28;19933;-77
2023/12/27 03:38:27;;;;;;;;;;;4.50;99.90;;;;;;8469613;28;19928;-77
2023/12/27 03:42:29;;;;;;;;;;;4.50;99.90;;;;;;8460942;27;20393;-77
2023/12/27 03:46:31;;;;;;;;;;;4.50;99.90;;;;;;8463602;28;19993;-77
2023/12/27 03:50:33;;;;;;;;;;;4.60;99.90;;;;;;8470248;27;19949;-77
2023/12/27 03:54:34;;;;;;;;;;;4.60;99.90;;;;;;8462377;27;19923;-77
2023/12/27 03:58:36;;;;;;;;;;;4.60;99.90;;;;;;8451071;27;19927;-77
2023/12/27 04:02:38;;;;;;;;;;;4.70;99.90;;;;;;8477696;27;19924;-77
2023/12/27 04:06:40;;;;;;;;;;;4.70;99.90;;;;;;8475974;27;19930;-77
2023/12/27 04:10:42;;;;;;;;;;;4.70;99.90;;;;;;8484689;27;20375;-77
2023/12/27 04:14:43;;;;;;;;;;;4.70;99.90;;;;;;8473567;27;19932;-77
2023/12/27 04:18:45;;;;;;;;;;;4.80;99.90;;;;;;8482737;27;19931;-77
2023/12/27 04:22:47;;;;;;;;;;;4.80;99.90;;;;;;8483592;27;19927;-77
2023/12/27 04:26:49;;;;;;;;;;;4.90;99.90;;;;;;8476817;27;19924;-77
2023/12/27 04:30:50;;;;;;;;;;;4.90;99.90;;;;;;8457945;27;20274;-77
2023/12/27 04:34:52;;;;;;;;;;;4.90;99.90;;;;;;8485948;27;19924;-78
2023/12/27 04:38:54;;;;;;;;;;;5.00;99.90;;;;;;8479317;27;19931;-77
2023/12/27 04:42:56;;;;;;;;;;;5.00;99.90;;;;;;8479399;27;19932;-77
2023/12/27 04:46:57;;;;;;;;;;;5.00;99.90;;;;;;8475608;27;19927;-77
2023/12/27 04:50:59;;;;;;;;;;;5.00;99.90;;;;;;8478531;27;19927;-78
2023/12/27 04:55:01;;;;;;;;;;;5.00;99.90;;;;;;8453323;27;19931;-77
2023/12/27 04:59:02;;;;;;;;;;;5.10;99.90;;;;;;8449039;27;19924;-77
2023/12/27 05:03:05;;;;;;;;;;;5.10;99.90;;;;;;8455858;27;19927;-77
2023/12/27 05:07:09;;;;;;;;;;;5.10;99.90;;;;;;8470418;27;20363;-78
2023/12/27 05:11:14;;;;;;;;;;;5.10;99.90;;;;;;8475466;27;19927;-77
2023/12/27 05:15:16;;;;;;;;;;;5.20;99.90;;;;;;8477572;27;19923;-77
2023/12/27 05:19:18;;;;;;;;;;;5.20;99.90;;;;;;8471219;27;19979;-77
2023/12/27 05:23:20;;;;;;;;;;;5.20;99.90;;;;;;8462885;27;19930;-78
2023/12/27 05:27:22;;;;;;;;;;;5.20;99.90;;;;;;8462144;27;19998;-77
2023/12/27 05:31:23;;;;;;;;;;;5.30;99.90;;;;;;8462901;27;20324;-77
2023/12/27 05:35:25;;;;;;;;;;;5.30;99.90;;;;;;8460632;27;19984;-77
2023/12/27 05:39:27;;;;;;;;;;;5.30;99.90;;;;;;8480536;27;19929;-76
2023/12/27 05:43:29;;;;;;;;;;;5.30;99.90;;;;;;8456025;27;20390;-77
2023/12/27 05:47:30;;;;;;;;;;;5.30;99.90;;;;;;8477151;27;20378;-77
2023/12/27 05:51:33;;;;;;;;;;;5.40;99.90;;;;;;8461777;27;19951;-77
2023/12/27 05:55:34;;;;;;;;;;;5.40;99.90;;;;;;8463970;27;19968;-76
2023/12/27 05:59:36;;;;;;;;;;;5.40;99.90;;;;;;8471815;27;19930;-77
2023/12/27 06:03:38;;;;;;;;;;;5.40;99.90;;;;;;8464066;27;20387;-77
2023/12/27 06:07:40;;;;;;;;;;;5.50;99.90;;;;;;8450805;27;19983;-77
2023/12/27 06:11:42;;;;;;;;;;;5.50;99.90;;;;;;8474999;27;19985;-77
2023/12/27 06:15:44;;;;;;;;;;;5.50;99.90;;;;;;8476028;27;20379;-77
2023/12/27 06:19:46;;;;;;;;;;;5.50;99.90;;;;;;8465102;27;19924;-77
2023/12/27 06:23:47;;;;;;;;;;;5.60;99.90;;;;;;8477211;27;20433;-77
2023/12/27 06:27:49;;;;;;;;;;;5.60;99.90;;;;;;8480850;27;19924;-77
2023/12/27 06:31:51;;;;;;;;;;;5.60;99.90;;;;;;8474720;27;19924;-77
2023/12/27 06:35:52;;;;;;;;;;;5.70;99.90;;;;;;8463472;27;19976;-77
2023/12/27 06:39:54;;;;;;;;;;;5.70;99.90;;;;;;8470814;27;19924;-77
2023/12/27 06:43:56;;;;;;;;;;;5.70;99.90;;;;;;8478840;27;19935;-77
2023/12/27 06:47:58;;;;;;;;;;;5.70;99.90;;;;;;8474108;28;19945;-77
2023/12/27 06:52:00;;;;;;;;;;;5.70;99.90;;;;;;8482732;27;19946;-77
2023/12/27 06:56:02;;;;;;;;;;;5.70;99.90;;;;;;8481448;28;19924;-77
2023/12/27 07:00:04;;;;;;;;;;;5.80;99.90;;;;;;8454715;28;20256;-77
2023/12/27 07:04:08;;;;;;;;;;;5.80;99.90;;;;;;8470057;28;20606;-77
2023/12/27 07:08:10;;;;;;;;;;;5.80;99.90;;;;;;8464377;28;20306;-77
2023/12/27 07:12:12;;;;;;;;;;;5.80;99.90;;;;;;8482436;27;19924;-76
2023/12/27 07:16:14;;;;;;;;;;;5.80;99.90;;;;;;8473004;28;19998;-77
2023/12/27 07:20:16;;;;;;;;;;;5.80;99.90;;;;;;8453590;28;20499;-77
2023/12/27 07:24:17;;;;;;;;;;;5.90;99.90;;;;;;8472550;28;19923;-77
2023/12/27 07:28:19;;;;;;;;;;;5.90;99.90;;;;;;8461512;27;19931;-77
2023/12/27 07:32:21;;;;;;;;;;;5.90;99.90;;;;;;8472026;27;19931;-77
2023/12/27 07:36:23;;;;;;;;;;;5.90;99.90;;;;;;8489402;27;20008;-78
2023/12/27 07:40:25;;;;;;;;;;;5.90;99.90;;;;;;8472346;27;19930;-77
2023/12/27 07:44:27;;;;;;;;;;;5.90;99.90;;;;;;8475611;27;19924;-77
2023/12/27 07:48:29;;;;;;;;;;;5.90;99.90;;;;;;8465163;27;20632;-77
2023/12/27 07:52:32;;;;;;;;;;;6.00;99.90;;;;;;8486165;27;19930;-77
2023/12/27 07:56:35;;;;;;;;;;;6.00;99.90;;;;;;8470487;27;19975;-77
2023/12/27 08:00:37;;;;;;;;;;;6.00;99.90;;;;;;8454109;27;20334;-77
2023/12/27 08:04:38;;;;;;;;;;;6.00;99.90;;;;;;8479160;27;19932;-77
2023/12/27 08:08:40;;;;;;;;;;;6.10;99.90;;;;;;8487458;27;19931;-77
2023/12/27 08:12:42;;;;;;;;;;;6.10;99.90;;;;;;8475647;27;19923;-77
2023/12/27 08:16:45;;;;;;;;;;;6.10;99.90;;;;;;8485055;27;19924;-77
2023/12/27 08:20:47;;;;;;;;;;;6.20;99.90;;;;;;8477938;27;20279;-77
2023/12/27 08:24:49;;;;;;;;;;;6.20;99.90;;;;;;8489274;27;19935;-77
2023/12/27 08:28:50;;;;;;;;;;;6.20;99.90;;;;;;8476549;27;19924;-77
2023/12/27 08:32:52;;;;;;;;;;;6.30;99.90;;;;;;8465589;27;19924;-76
2023/12/27 08:36:54;;;;;;;;;;;6.30;99.90;;;;;;8463361;27;19923;-77
2023/12/27 08:40:56;;;;;;;;;;;6.30;99.90;;;;;;8455127;27;19923;-76
2023/12/27 08:44:57;;;;;;;;;;;6.30;99.90;;;;;;8484262;27;19927;-77
2023/12/27 08:48:59;;;;;;;;;;;6.40;99.90;;;;;;8485862;27;19928;-77
2023/12/27 08:53:02;;;;;;;;;;;6.40;99.90;;;;;;8471129;27;19931;-77
2023/12/27 08:57:03;;;;;;;;;;;6.40;99.90;;;;;;8457317;27;19927;-77
2023/12/27 09:01:05;;;;;;;;;;;6.50;99.90;;;;;;8458314;27;19974;-77
2023/12/27 09:05:07;;;;;;;;;;;6.50;99.90;;;;;;8476053;27;19928;-77
2023/12/27 09:09:09;;;;;;;;;;;6.60;99.90;;;;;;8473291;27;19923;-77
2023/12/27 09:13:11;;;;;;;;;;;6.60;99.90;;;;;;8453981;27;20317;-77
2023/12/27 09:17:15;;;;;;;;;;;6.60;99.90;;;;;;8470160;27;19928;-76
2023/12/27 09:21:17;;;;;;;;;;;6.70;99.90;;;;;;8474837;27;19970;-77
2023/12/27 09:25:19;;;;;;;;;;;6.70;99.90;;;;;;8460721;27;19973;-76
2023/12/27 09:29:20;;;;;;;;;;;6.80;99.90;;;;;;8456212;27;19923;-76
2023/12/27 09:33:22;;;;;;;;;;;6.80;99.90;;;;;;8459139;27;19924;-77
2023/12/27 09:37:24;;;;;;;;;;;6.80;99.90;;;;;;8482922;27;19932;-77
2023/12/27 09:41:26;;;;;;;;;;;6.90;99.90;;;;;;8473128;27;19924;-77
2023/12/27 09:45:30;;;;;;;;;;;6.90;99.90;;;;;;8482690;27;19982;-77
2023/12/27 09:49:32;;;;;;;;;;;7.00;99.90;;;;;;8473636;27;20053;-77
2023/12/27 09:53:33;;;;;;;;;;;7.10;99.90;;;;;;8462593;27;20335;-76
2023/12/27 09:57:35;;;;;;;;;;;7.10;99.90;;;;;;8458476;27;19923;-77
2023/12/27 10:01:38;;;;;;;;;;;7.20;99.90;;;;;;8474831;27;20402;-77
2023/12/27 10:05:45;;;;;;;;;;;7.20;99.90;;;;;;8479801;27;19963;-77
2023/12/27 10:09:47;;;;;;;;;;;7.20;99.90;;;;;;8458317;27;19959;-77
2023/12/27 10:13:50;;;;;;;;;;;7.30;99.90;;;;;;8478831;27;19924;-77
2023/12/27 10:17:52;;;;;;;;;;;7.40;99.90;;;;;;8451507;27;20019;-77
2023/12/27 10:21:53;;;;;;;;;;;7.40;99.90;;;;;;8478091;27;20366;-77
2023/12/27 10:25:55;;;;;;;;;;;7.50;99.90;;;;;;8454659;27;20436;-77
2023/12/27 10:29:59;;;;;;;;;;;7.60;99.90;;;;;;8471743;27;19960;-77
2023/12/27 10:34:03;;;;;;;;;;;7.60;99.90;;;;;;8479376;27;19931;-77
2023/12/27 10:38:05;;;;;;;;;;;7.70;99.90;;;;;;8470630;27;20361;-77
2023/12/27 10:42:08;;;;;;;;;;;7.70;99.90;;;;;;8466345;27;19927;-78
2023/12/27 10:46:10;;;;;;;;;;;7.80;99.90;;;;;;8470557;27;19923;-77
2023/12/27 10:50:12;;;;;;;;;;;7.80;99.90;;;;;;8478238;28;19934;-77
2023/12/27 10:54:14;;;;;;;;;;;7.90;99.90;;;;;;8473510;28;19927;-77
2023/12/27 10:58:19;;;;;;;;;;;7.90;99.90;;;;;;8470285;27;20367;-77
2023/12/27 11:02:22;;;;;;;;;;;8.00;99.90;;;;;;8463827;27;19930;-76
2023/12/27 11:06:24;;;;;;;;;;;8.00;99.90;;;;;;8463058;27;19984;-77
2023/12/27 11:10:29;;;;;;;;;;;8.10;99.90;;;;;;8479394;27;19970;-77
2023/12/27 11:14:32;;;;;;;;;;;8.10;99.90;;;;;;8460831;27;19928;-77
2023/12/27 11:18:35;;;;;;;;;;;8.20;99.90;;;;;;8477273;27;19924;-77
2023/12/27 11:22:38;;;;;;;;;;;8.20;99.90;;;;;;8474761;27;19979;-77
2023/12/27 11:26:39;;;;;;;;;;;8.30;99.90;;;;;;8478985;27;19927;-77
2023/12/27 11:30:42;;;;;;;;;;;8.30;99.90;;;;;;8476592;27;20290;-77
2023/12/27 11:34:44;;;;;;;;;;;8.40;99.90;;;;;;8472567;27;19937;-77
2023/12/27 11:38:46;;;;;;;;;;;8.40;99.90;;;;;;8469545;27;20409;-77
2023/12/27 11:42:48;;;;;;;;;;;8.50;99.90;;;;;;8452322;27;20394;-77
2023/12/27 11:46:50;;;;;;;;;;;8.50;99.90;;;;;;8471970;27;20398;-77
2023/12/27 11:50:52;;;;;;;;;;;8.60;99.90;;;;;;8450304;27;19996;-77
2023/12/27 11:54:53;;;;;;;;;;;8.60;99.90;;;;;;8457145;27;19923;-77
2023/12/27 11:58:55;;;;;;;;;;;8.70;99.90;;;;;;8477547;27;20375;-77
2023/12/27 12:02:58;;;;;;;;;;;8.70;99.90;;;;;;8475687;27;19930;-77
2023/12/27 12:07:19;;;;;;;;;;;8.80;99.90;;;;;;8475769;27;19923;-77
2023/12/27 12:11:21;;;;;;;;;;;8.90;99.90;;;;;;8487106;27;19924;-77
2023/12/27 12:15:23;;;;;;;;;;;8.90;99.90;;;;;;8496433;27;19923;-78
2023/12/27 12:19:27;;;;;;;;;;;8.90;99.90;;;;;;8472165;27;19924;-77
2023/12/27 12:23:30;;;;;;;;;;;9.00;99.90;;;;;;8474922;27;19931;-77
2023/12/27 12:27:32;;;;;;;;;;;9.00;99.90;;;;;;8476485;27;19980;-78
2023/12/27 12:31:34;;;;;;;;;;;9.10;99.90;;;;;;8490918;27;19963;-77
2023/12/27 12:35:36;;;;;;;;;;;9.10;99.90;;;;;;8484570;27;20272;-77
2023/12/27 12:39:38;;;;;;;;;;;9.10;99.90;;;;;;8470091;27;19977;-77
2023/12/27 12:43:40;;;;;;;;;;;9.10;99.90;;;;;;8475704;27;19924;-77
2023/12/27 12:47:42;;;;;;;;;;;9.20;99.90;;;;;;8480517;27;20397;-77
2023/12/27 12:51:44;;;;;;;;;;;9.20;99.90;;;;;;8466072;27;19935;-77
2023/12/27 12:55:47;;;;;;;;;;;9.20;99.90;;;;;;8457462;27;19930;-77
2023/12/27 12:59:49;;;;;;;;;;;9.20;99.90;;;;;;8476201;27;20020;-77
2023/12/27 13:03:51;;;;;;;;;;;9.20;99.90;;;;;;8480812;27;19924;-78
2023/12/27 13:07:53;;;;;;;;;;;9.30;99.90;;;;;;8479664;27;19975;-77
2023/12/27 13:11:55;;;;;;;;;;;9.30;99.90;;;;;;8443347;27;19930;-78
2023/12/27 13:15:57;;;;;;;;;;;9.30;99.90;;;;;;8450879;27;19924;-77
2023/12/27 13:19:59;;;;;;;;;;;9.30;99.90;;;;;;8456632;27;20419;-77
2023/12/27 13:24:01;;;;;;;;;;;9.30;99.90;;;;;;8475656;27;19927;-77
2023/12/27 13:28:03;;;;;;;;;;;9.40;99.90;;;;;;8470324;27;19931;-77
2023/12/27 13:32:11;;;;;;;;;;;9.40;99.90;;;;;;8460218;27;19923;-77
2023/12/27 13:36:13;;;;;;;;;;;9.40;99.90;;;;;;8479019;27;20382;-77
2023/12/27 13:40:15;;;;;;;;;;;9.40;99.90;;;;;;8471941;27;19923;-77
2023/12/27 13:44:17;;;;;;;;;;;9.40;99.90;;;;;;8452006;27;19931;-78
2023/12/27 13:48:18;;;;;;;;;;;9.40;99.90;;;;;;8457093;27;20014;-77
2023/12/27 13:52:23;;;;;;;;;;;9.40;99.90;;;;;;8472635;27;19954;-77
2023/12/27 13:56:24;;;;;;;;;;;9.40;99.90;;;;;;8480022;27;19935;-78
2023/12/27 14:00:26;;;;;;;;;;;9.30;99.90;;;;;;8445034;27;19985;-78
2023/12/27 14:04:28;;;;;;;;;;;9.30;99.90;;;;;;8468859;27;19924;-78
2023/12/27 14:08:30;;;;;;;;;;;9.40;99.90;;;;;;8463034;27;19934;-77
2023/12/27 14:12:31;;;;;;;;;;;9.30;99.90;;;;;;8448875;27;19930;-77
2023/12/27 14:16:33;;;;;;;;;;;9.30;99.90;;;;;;8459520;27;19984;-78
2023/12/27 14:20:35;;;;;;;;;;;9.30;99.90;;;;;;8464203;27;20012;-78
2023/12/27 14:24:37;;;;;;;;;;;9.30;99.90;;;;;;8461368;27;20017;-77
2023/12/27 14:28:38;;;;;;;;;;;9.30;99.90;;;;;;8442129;27;20348;-77
2023/12/27 14:32:40;;;;;;;;;;;9.30;99.90;;;;;;8455826;27;19923;-77
2023/12/27 14:36:42;;;;;;;;;;;9.30;99.90;;;;;;8459493;27;19931;-77
2023/12/27 14:40:44;;;;;;;;;;;9.30;99.90;;;;;;8450085;27;19970;-77
2023/12/27 14:44:45;;;;;;;;;;;9.30;99.90;;;;;;8459860;27;19932;-77
2023/12/27 14:48:49;;;;;;;;;;;9.30;99.90;;;;;;8424623;28;20207;-78
2023/12/27 14:52:51;;;;;;;;;;;9.30;99.90;;;;;;8420578;28;19928;-77
2023/12/27 14:56:52;;;;;;;;;;;9.20;99.90;;;;;;8420921;28;19927;-77
2023/12/27 15:00:54;;;;;;;;;;;9.20;99.90;;;;;;8429773;28;19932;-77
2023/12/27 15:04:56;;;;;;;;;;;9.30;99.90;;;;;;8423531;28;19931;-77
2023/12/27 15:08:58;;;;;;;;;;;9.20;99.90;;;;;;8418808;28;20313;-77
2023/12/27 15:12:59;;;;;;;;;;;9.20;99.90;;;;;;8424169;28;19925;-77
2023/12/27 15:17:01;;;;;;;;;;;9.20;99.90;;;;;;8414064;28;19924;-77
2023/12/27 15:21:04;;;;;;;;;;;9.30;99.90;;;;;;8420691;28;19932;-77
2023/12/27 15:25:06;;;;;;;;;;;9.20;99.90;;;;;;8416602;28;19970;-77
2023/12/27 15:29:07;;;;;;;;;;;9.20;99.90;;;;;;8420566;28;20398;-77
2023/12/27 15:33:09;;;;;;;;;;;9.20;99.90;;;;;;8406144;28;20494;-77
2023/12/27 15:37:16;;;;;;;;;;;9.20;99.90;;;;;;8409089;28;19939;-77
2023/12/27 15:41:20;;;;;;;;;;;9.20;99.90;;;;;;8408840;28;20010;-77
2023/12/27 15:45:22;;;;;;;;;;;9.20;99.90;;;;;;8417647;28;19932;-77
2023/12/27 15:49:25;;;;;;;;;;;9.20;99.90;;;;;;8418156;28;19938;-77
2023/12/27 15:53:27;;;;;;;;;;;9.20;99.90;;;;;;8418948;28;20295;-77
2023/12/27 15:57:28;;;;;;;;;;;9.20;99.90;;;;;;8428743;28;19944;-77
2023/12/27 16:01:31;;;;;;;;;;;9.10;99.90;;;;;;8440505;28;19939;-77
2023/12/27 16:05:33;;;;;;;;;;;9.10;99.90;;;;;;8436484;28;19928;-77
2023/12/27 16:09:35;;;;;;;;;;;9.10;99.90;;;;;;8424095;28;19972;-77
2023/12/27 16:13:37;;;;;;;;;;;9.10;99.90;;;;;;8434868;28;19924;-77
2023/12/27 16:17:38;;;;;;;;;;;9.10;99.90;;;;;;8420038;28;20294;-77
2023/12/27 16:21:41;;;;;;;;;;;9.10;99.90;;;;;;8435624;28;19943;-77
2023/12/27 16:25:43;;;;;;;;;;;9.10;99.90;;;;;;8420229;28;19928;-77
2023/12/27 16:29:45;;;;;;;;;;;9.10;99.90;;;;;;8424530;28;19931;-77
2023/12/27 16:33:47;;;;;;;;;;;9.00;99.90;;;;;;8424472;28;19927;-77
2023/12/27 16:37:49;;;;;;;;;;;9.00;99.90;;;;;;8427253;28;20431;-77
2023/12/27 16:41:51;;;;;;;;;;;9.00;99.90;;;;;;8430278;28;19946;-77
2023/12/27 16:45:53;;;;;;;;;;;8.90;99.90;;;;;;8432219;28;20433;-77
2023/12/27 16:49:55;;;;;;;;;;;8.90;99.90;;;;;;8429033;28;20417;-77
2023/12/27 16:53:58;;;;;;;;;;;8.90;99.90;;;;;;8414021;28;20066;-77
2023/12/27 16:57:59;;;;;;;;;;;8.90;99.90;;;;;;8410311;28;19938;-77
2023/12/27 17:02:01;;;;;;;;;;;8.80;99.90;;;;;;8409759;28;20319;-77
2023/12/27 17:06:03;;;;;;;;;;;8.80;99.90;;;;;;8425543;28;19949;-77
2023/12/27 17:10:08;;;;;;;;;;;8.80;99.90;;;;;;8423070;28;20028;-77
2023/12/27 17:14:10;;;;;;;;;;;8.80;99.90;;;;;;8416359;28;19932;-77
2023/12/27 17:18:12;;;;;;;;;;;8.80;99.90;;;;;;8433194;28;20376;-78
2023/12/27 17:22:13;;;;;;;;;;;8.80;99.90;;;;;;8416118;28;20406;-77
2023/12/27 17:26:15;;;;;;;;;;;8.80;99.90;;;;;;8433605;28;19938;-77
2023/12/27 17:30:17;;;;;;;;;;;8.90;99.90;;;;;;8430470;28;19989;-77
2023/12/27 17:34:19;;;;;;;;;;;8.90;99.90;;;;;;8422952;28;19924;-77
2023/12/27 17:38:21;;;;;;;;;;;8.80;99.90;;;;;;8415741;28;19923;-78
2023/12/27 17:42:22;;;;;;;;;;;8.90;99.90;;;;;;8425639;28;20359;-77
2023/12/27 17:46:24;;;;;;;;;;;8.90;99.90;;;;;;8418626;28;19928;-77
2023/12/27 17:50:26;;;;;;;;;;;8.90;99.90;;;;;;8422768;28;19924;-77
2023/12/27 17:54:28;;;;;;;;;;;8.90;99.90;;;;;;8430887;28;19945;-77
2023/12/27 17:58:29;;;;;;;;;;;9.00;99.90;;;;;;8425345;28;20299;-77
2023/12/27 18:02:32;;;;;;;;;;;9.00;99.90;;;;;;8415471;28;19973;-77
2023/12/27 18:06:34;;;;;;;;;;;9.00;99.90;;;;;;8424628;28;20375;-77
2023/12/27 18:10:36;;;;;;;;;;;9.00;99.90;;;;;;8414875;28;19927;-77
2023/12/27 18:14:38;;;;;;;;;;;9.00;99.90;;;;;;8431986;28;19938;-77
2023/12/27 18:18:40;;;;;;;;;;;9.00;99.90;;;;;;8415960;28;19935;-77
2023/12/27 18:22:42;;;;;;;;;;;9.00;99.90;;;;;;8423977;28;19931;-77
2023/12/27 18:26:43;;;;;;;;;;;8.90;99.90;;;;;;8425714;28;20375;-77
2023/12/27 18:30:45;;;;;;;;;;;8.90;99.90;;;;;;8413659;28;20003;-77
2023/12/27 18:34:47;;;;;;;;;;;8.80;99.90;;;;;;8429687;28;19928;-77
2023/12/27 18:38:49;;;;;;;;;;;8.80;99.90;;;;;;8419300;28;19927;-77
2023/12/27 18:42:53;;;;;;;;;;;8.80;99.90;;;;;;8417508;28;19924;-77
2023/12/27 18:46:55;;;;;;;;;;;8.80;99.90;;;;;;8409484;28;19928;-77
2023/12/27 18:50:57;;;;;;;;;;;8.70;99.90;;;;;;8425543;28;19927;-77
2023/12/27 18:55:00;;;;;;;;;;;8.70;99.90;;;;;;8424667;28;19934;-77
2023/12/27 18:59:02;;;;;;;;;;;8.70;99.90;;;;;;8427567;28;19927;-77
2023/12/27 19:03:04;;;;;;;;;;;8.70;99.90;;;;;;8423360;28;20448;-77
2023/12/27 19:07:06;;;;;;;;;;;8.80;99.90;;;;;;8412865;28;19971;-77
2023/12/27 19:11:08;;;;;;;;;;;8.80;99.90;;;;;;8424304;28;20022;-77
2023/12/27 19:15:11;;;;;;;;;;;8.90;99.90;;;;;;8413876;28;19936;-77
2023/12/27 19:19:16;;;;;;;;;;;8.90;99.90;;;;;;8426077;28;19928;-77
2023/12/27 19:23:20;;;;;;;;;;;9.00;99.90;;;;;;8411321;28;19928;-77
2023/12/27 19:27:22;;;;;;;;;;;9.10;99.90;;;;;;8433085;28;19980;-77
2023/12/27 19:31:24;;;;;;;;;;;9.10;99.90;;;;;;8437206;28;20307;-77
2023/12/27 19:35:26;;;;;;;;;;;9.20;99.90;;;;;;8441824;28;19978;-77
2023/12/27 19:39:27;;;;;;;;;;;9.20;99.90;;;;;;8420911;28;19950;-77
2023/12/27 19:43:29;;;;;;;;;;;9.30;99.90;;;;;;8420421;28;19967;-77
2023/12/27 19:47:31;;;;;;;;;;;9.40;99.90;;;;;;8414188;28;19924;-77
2023/12/27 19:51:35;;;;;;;;;;;9.40;99.90;;;;;;8436962;28;19938;-77
2023/12/27 19:55:38;;;;;;;;;;;9.50;99.90;;;;;;8431402;28;19928;-77
2023/12/27 19:59:39;;;;;;;;;;;9.50;99.90;;;;;;8439049;28;20010;-77
2023/12/27 20:03:43;;;;;;;;;;;9.60;99.90;;;;;;8415178;28;19928;-77
2023/12/27 20:23:29;;;;;;;;;;;9.00;99.90;;;;;;8430846;28;24168;-77
2023/12/27 20:27:31;;;;;;;;;;;9.00;99.90;;;;;;8435092;28;19934;-77
2023/12/27 20:31:33;;;;;;;;;;;9.00;99.90;;;;;;8430828;28;19931;-77
2023/12/27 20:35:35;;;;;;;;;;;9.00;99.90;;;;;;8429919;28;19936;-77
2023/12/27 20:39:39;;;;;;;;;;;9.00;99.90;;;;;;8421022;28;20298;-77
2023/12/27 20:43:41;;;;;;;;;;;9.10;99.90;;;;;;8423285;28;19996;-77
2023/12/27 20:47:43;;;;;;;;;;;9.10;99.90;;;;;;8421068;28;19945;-77
2023/12/27 20:51:45;;;;;;;;;;;9.10;99.90;;;;;;8433782;28;19932;-77
2023/12/27 20:55:47;;;;;;;;;;;9.20;99.90;;;;;;8436745;28;20413;-77
2023/12/27 20:59:49;;;;;;;;;;;9.30;99.90;;;;;;8428421;28;20303;-77
2023/12/27 21:03:50;;;;;;;;;;;9.30;99.90;;;;;;8407910;28;20265;-77
2023/12/27 21:07:52;;;;;;;;;;;9.30;99.90;;;;;;8415636;28;19950;-77
2023/12/27 21:11:55;;;;;;;;;;;9.40;99.90;;;;;;8417574;28;19985;-77
2023/12/27 21:15:56;;;;;;;;;;;9.40;99.90;;;;;;8429818;28;19938;-77
2023/12/27 21:19:58;;;;;;;;;;;9.40;99.90;;;;;;8420064;28;19931;-77
2023/12/27 21:24:00;;;;;;;;;;;9.40;99.90;;;;;;8409735;28;20025;-77
2023/12/27 21:28:02;;;;;;;;;;;9.40;99.90;;;;;;8425177;28;19946;-77
2023/12/27 21:32:04;;;;;;;;;;;9.30;99.90;;;;;;8428101;28;19935;-77
2023/12/27 21:36:06;;;;;;;;;;;9.30;99.90;;;;;;8434618;28;19924;-77
2023/12/27 21:40:08;;;;;;;;;;;9.30;99.90;;;;;;8413193;28;19931;-77
2023/12/27 21:44:10;;;;;;;;;;;9.20;99.90;;;;;;8423316;28;19924;-76
2023/12/27 21:48:12;;;;;;;;;;;9.20;99.90;;;;;;8423778;28;19927;-77
2023/12/27 21:52:13;;;;;;;;;;;9.10;99.90;;;;;;8425046;28;19924;-77
2023/12/27 21:56:25;;;;;;;;;;;9.10;99.90;;;;;;8431544;28;19932;-77
2023/12/27 22:00:26;;;;;;;;;;;9.20;99.90;;;;;;8406472;28;19924;-77
2023/12/27 22:04:28;;;;;;;;;;;9.30;99.90;;;;;;8426450;28;19938;-78
2023/12/27 22:08:33;;;;;;;;;;;9.30;99.90;;;;;;8438679;28;19930;-77
2023/12/27 22:12:35;;;;;;;;;;;9.30;99.90;;;;;;8425774;28;19939;-77
2023/12/27 22:16:36;;;;;;;;;;;9.30;99.90;;;;;;8427649;28;19928;-77
2023/12/27 22:20:38;;;;;;;;;;;9.40;99.90;;;;;;8438099;28;19930;-77
2023/12/27 22:24:40;;;;;;;;;;;9.30;99.90;;;;;;8422985;28;20545;-76
2023/12/27 22:28:42;;;;;;;;;;;9.30;99.90;;;;;;8413716;28;20387;-77
2023/12/27 22:32:43;;;;;;;;;;;9.30;99.90;;;;;;8432026;28;19968;-77
2023/12/27 22:36:45;;;;;;;;;;;9.40;99.90;;;;;;8432919;28;20341;-77
2023/12/27 22:40:47;;;;;;;;;;;9.50;99.90;;;;;;8418592;28;19931;-77
2023/12/27 22:44:49;;;;;;;;;;;9.50;99.90;;;;;;8437344;28;20349;-77
2023/12/27 22:48:52;;;;;;;;;;;9.50;99.90;;;;;;8440723;28;20272;-77
2023/12/27 22:52:54;;;;;;;;;;;9.50;99.90;;;;;;8429219;28;19981;-77
2023/12/27 22:56:56;;;;;;;;;;;9.60;99.90;;;;;;8424365;28;19953;-77
2023/12/27 23:00:58;;;;;;;;;;;9.70;99.90;;;;;;8422424;28;19932;-77
2023/12/27 23:04:59;;;;;;;;;;;9.70;99.90;;;;;;8420548;28;19924;-77
2023/12/27 23:09:01;;;;;;;;;;;9.80;99.90;;;;;;8436945;28;19939;-78
2023/12/27 23:13:03;;;;;;;;;;;9.90;99.90;;;;;;8415613;28;19924;-77
2023/12/27 23:17:05;;;;;;;;;;;10.00;99.90;;;;;;8441561;28;19924;-77
2023/12/27 23:21:07;;;;;;;;;;;9.90;99.90;;;;;;8423448;28;19931;-77
2023/12/27 23:25:09;;;;;;;;;;;10.00;99.90;;;;;;8423823;28;19931;-76
2023/12/27 23:29:10;;;;;;;;;;;10.00;99.90;;;;;;8418634;28;19946;-77
2023/12/27 23:33:13;;;;;;;;;;;10.10;99.90;;;;;;8417818;28;19939;-77
2023/12/27 23:37:15;;;;;;;;;;;10.10;99.90;;;;;;8417526;28;19977;-77
2023/12/27 23:41:16;;;;;;;;;;;10.20;99.90;;;;;;8425831;28;19928;-77
2023/12/27 23:45:18;;;;;;;;;;;10.30;99.90;;;;;;8415257;28;19932;-78
2023/12/27 23:49:20;;;;;;;;;;;10.30;99.90;;;;;;8442645;28;19955;-77
2023/12/27 23:53:21;;;;;;;;;;;10.40;99.90;;;;;;8420088;28;19939;-77
2023/12/27 23:57:23;;;;;;;;;;;10.40;99.90;;;;;;8430910;28;19931;-77
